Latest Coastal Weather Observations for Warrnambool

IDV60701

Issued at 4:21 am EDT Saturday 10 December 2016 (issued every 10 minutes, with the page automatically refreshed every 10 minutes)

About coastal observations | Map of coastal stations | Coastal observations for VIC | Marine services | Other Formats
Station Details ID: 090186 Name: WARRNAMBOOL AIRPORT NDB Lat: -38.29 Lon: 142.45 Height: 70.8 m
Data from the previous 72 hours. | See also: Recent months at Warrnambool
Date/Time
EDT
Temp
°C
Wind Pressure Rain since
9am
mm
Weather Cloud Vis
km
Sea
Height
m
Swell
Dir  Spd
kts
Gust
kts
hPa Trend Height
m
Period
s
Dir
10/04:00am 9.9 NW 4 5 1022.1 - 0.0 - Partly cloudy 10 - - - -
10/03:30am 10.1 SW 3 5 1022.2 - 0.0 - Partly cloudy 10 - - - -
10/03:00am 10.3 WSW 5 8 1022.4 - 0.0 Recent precip. Cloudy 10 - - - -
10/02:30am 10.0 W 7 11 1022.6 - 0.0 - Partly cloudy 10 - - - -
10/02:00am 9.3 NW 6 7 1022.6 - 0.0 - Partly cloudy 10 - - - -
10/01:30am 9.5 WNW 3 4 1022.7 - 0.0 - Partly cloudy 10 - - - -
10/01:00am 8.9 WNW 4 5 1022.9 - 0.0 - Cloudy 10 - - - -
10/12:30am 8.0 W 4 5 1023.0 - 0.0 - - 10 - - - -
10/12:00am 9.7 W 5 5 1023.2 - 0.0 - Mostly cloudy 10 - - - -
 
Date/Time
EDT
Temp
°C
Wind Pressure Rain since
9am
mm
Weather Cloud Vis
km
Sea
Height
m
Swell
Dir  Spd
kts
Gust
kts
hPa Trend Height
m
Period
s
Dir
09/11:30pm 10.3 W 5 6 1023.3 - 0.0 - Cloudy 10 - - - -
09/11:00pm 10.6 WSW 5 6 1023.3 - 0.0 - Cloudy 10 - - - -
09/10:30pm 11.1 SW 5 6 1023.2 - 0.0 - Partly cloudy 10 - - - -
09/10:00pm 11.3 SSW 7 10 1023.1 - 0.0 - Partly cloudy 10 - - - -
09/09:30pm 11.1 WSW 5 7 1022.9 - 0.0 - Cloudy 10 - - - -
09/09:00pm 11.5 SW 8 10 1022.9 - 0.0 - Mostly cloudy 10 - - - -
09/08:30pm 11.6 SSW 12 16 1022.8 - 0.0 - Partly cloudy 10 - - - -
09/08:00pm 12.4 SW 11 13 1022.5 - 0.0 - Cloudy 10 - - - -
09/07:30pm 12.5 SW 11 15 1022.2 - 0.0 - Partly cloudy 10 - - - -
09/07:00pm 12.7 SW 12 16 1021.8 - 0.0 - Partly cloudy 10 - - - -
09/06:30pm 13.3 SW 13 16 1021.5 - 0.0 - Partly cloudy 10 - - - -
09/06:00pm 13.5 SW 15 20 1021.3 - 0.0 - Cloudy 10 - - - -
09/05:30pm 14.2 SW 14 20 1021.3 - 0.0 - Partly cloudy 10 - - - -
09/05:00pm 14.1 SW 17 22 1021.3 - 0.0 - Partly cloudy 10 - - - -
09/04:30pm 14.0 SW 15 22 1021.1 - 0.0 - Partly cloudy 10 - - - -
09/04:00pm 13.7 SW 17 21 1021.2 - 0.0 - Partly cloudy 10 - - - -
09/03:30pm 12.8 SSW 17 21 1021.2 - 0.0 - Partly cloudy 10 - - - -
09/03:00pm 14.3 SW 15 23 1021.0 - 0.0 - Mostly cloudy 10 - - - -
09/02:30pm 13.8 SSW 16 22 1020.9 - 0.0 - Partly cloudy 10 - - - -
09/02:00pm 13.7 SW 19 23 1020.9 - 0.0 - Partly cloudy 10 - - - -
09/01:30pm 13.6 WSW 16 22 1020.6 - 0.0 - Partly cloudy 10 - - - -
09/01:00pm 14.0 SSW 17 23 1020.3 - 0.0 - Partly cloudy 10 - - - -
09/12:30pm 14.2 SW 17 21 1020.1 - 0.0 - Partly cloudy 10 - - - -
09/12:00pm 13.7 SW 14 20 1019.9 - 0.0 Rain Cloudy 10 - - - -
09/11:30am 11.8 SSW 18 22 1019.7 - 0.0 - Partly cloudy 10 - - - -
09/11:17am 12.1 SSW 18 26 1019.5 - 0.0 - Partly cloudy 10 - - - -
09/11:00am 12.5 SW 17 25 1019.3 - 0.0 - Partly cloudy 10 - - - -
09/10:30am 14.1 SW 16 22 1019.1 - 0.0 - Partly cloudy 10 - - - -
09/10:00am 12.3 SW 20 25 1018.8 - 0.0 - Partly cloudy 10 - - - -
09/09:47am 12.8 SW 18 28 1018.5 - 0.0 - Partly cloudy 10 - - - -
09/09:30am 12.8 SW 18 24 1018.3 - 0.0 - Partly cloudy 10 - - - -
09/09:00am 12.1 SW 19 24 1017.8 - - Fine Mostly cloudy 10 - - - -
09/08:30am 12.7 SW 17 25 1017.3 - - - - 10 - - - -
09/08:00am 11.2 SW 17 23 1016.7 - 3.8 - Partly cloudy 10 - - - -
09/07:30am 11.0 SW 19 27 1015.9 - 3.8 - Partly cloudy 10 - - - -
09/07:15am 11.5 SSW 15 26 1015.7 - 3.8 - Partly cloudy 10 - - - -
09/07:00am 10.3 SSW 18 25 1015.4 - 3.8 - Partly cloudy 10 - - - -
09/06:30am 10.7 SSW 16 22 1015.0 - 3.8 - Partly cloudy 10 - - - -
09/06:00am 10.5 SSW 19 25 1014.4 - 3.8 - Cloudy 10 - - - -
09/05:30am 10.0 SW 17 23 1013.9 - 3.8 - Partly cloudy 10 - - - -
09/05:00am 10.4 SW 16 25 1013.3 - 3.8 - Partly cloudy 10 - - - -
09/04:30am 10.5 SW 17 26 1012.8 - 3.8 - Partly cloudy 10 - - - -
09/04:00am 10.3 SSW 17 25 1012.5 - 3.8 - Partly cloudy 10 - - - -
09/03:40am 10.4 SSW 18 28 1012.2 - 3.8 - Partly cloudy 10 - - - -
09/03:30am 10.3 SW 19 27 1012.1 - 3.8 - Partly cloudy 10 - - - -
09/03:00am 10.0 SW 18 23 1012.0 - 3.8 - Mostly clear 10 - - - -
09/02:30am 10.1 SSW 22 29 1011.8 - 3.8 - Partly cloudy 10 - - - -
09/02:04am 9.8 SW 16 26 1011.5 - 3.8 - Partly cloudy 10 - - - -
09/02:00am 9.8 SW 19 26 1011.6 - 3.8 - Partly cloudy 10 - - - -
09/01:30am 9.9 SSW 16 22 1011.5 - 3.8 - Partly cloudy 10 - - - -
09/01:23am 10.1 SSW 18 28 1011.5 - 3.8 - Partly cloudy 10 - - - -
09/01:07am 10.3 SW 15 27 1011.4 - 3.8 - Partly cloudy 10 - - - -
09/01:00am 9.8 WSW 12 16 1011.3 - 3.8 - Partly cloudy 10 - - - -
09/12:30am 10.1 SW 13 20 1011.2 - 3.2 - Partly cloudy 10 - - - -
09/12:09am 10.8 SW 16 26 1011.0 - 2.8 - Partly cloudy 10 - - - -
09/12:00am 10.7 SW 16 23 1010.9 - 2.8 Rain Cloudy 10 - - - -
 
Date/Time
EDT
Temp
°C
Wind Pressure Rain since
9am
mm
Weather Cloud Vis
km
Sea
Height
m
Swell
Dir  Spd
kts
Gust
kts
hPa Trend Height
m
Period
s
Dir
08/11:30pm 10.8 SW 18 28 1010.7 - 2.6 - Partly cloudy - - - - -
08/11:01pm 10.6 SSW 22 32 1010.3 - 2.6 - Partly cloudy - - - - -
08/11:00pm 10.9 SSW 23 32 1010.3 - 2.6 - Partly cloudy - - - - -
08/10:31pm 12.0 SW 16 26 1009.7 - 2.6 - Partly cloudy - - - - -
08/10:30pm 12.0 SW 16 21 1009.7 - 2.6 - Partly cloudy - - - - -
08/10:00pm 12.1 WSW 19 25 1009.0 - 2.6 - Partly cloudy 10 - - - -
08/09:40pm 12.2 WSW 21 34 1008.6 - 2.6 - Partly cloudy 10 - - - -
08/09:30pm 12.1 WSW 18 27 1008.5 - 2.6 - Partly cloudy 10 - - - -
08/09:03pm 11.3 WSW 20 30 1008.0 - 2.6 - Partly cloudy 10 - - - -
08/09:00pm 11.5 SW 21 30 1008.0 - 2.6 Showers Cloudy 10 - - - -
08/08:58pm 12.1 SW 20 30 1007.9 - 2.6 - Partly cloudy 10 - - - -
08/08:30pm 12.5 SW 22 29 1007.2 - 2.6 - Partly cloudy 10 - - - -
08/08:00pm 12.3 SW 22 33 1006.5 - 2.6 - Partly cloudy 10 - - - -
08/07:30pm 12.3 WSW 22 33 1005.9 - 2.6 - Partly cloudy 10 - - - -
08/07:05pm 12.1 WSW 21 31 1005.2 - 2.6 - Partly cloudy 10 - - - -
08/07:03pm 12.0 WSW 23 31 1005.2 - 2.6 - Partly cloudy 10 - - - -
08/07:00pm 11.9 WSW 23 31 1005.1 - 2.6 - Partly cloudy 7 - - - -
08/06:51pm 11.8 WSW 22 32 1004.8 - 2.4 - Partly cloudy 5 - - - -
08/06:47pm 11.5 WSW 23 32 1004.7 - 2.4 - Partly cloudy 3 - - - -
08/06:33pm 12.0 WSW 20 31 1004.3 - 1.6 - Partly cloudy 5 - - - -
08/06:31pm 11.8 WSW 20 31 1004.3 - 1.6 - Partly cloudy 5 - - - -
08/06:30pm 11.8 WSW 21 31 1004.3 - 1.4 - Partly cloudy 6 - - - -
08/06:26pm 12.1 WSW 21 31 1004.2 - 1.2 - Partly cloudy 9 - - - -
08/06:00pm 12.8 WSW 21 30 1003.4 - 1.0 Showers Cloudy 10 - - - -
08/05:33pm 13.2 WSW 23 34 1002.7 - 1.0 - Partly cloudy 10 - - - -
08/05:32pm 13.1 WSW 23 34 1002.7 - 1.0 - Partly cloudy 10 - - - -
08/05:30pm 13.3 WSW 22 31 1002.6 - 1.0 - Partly cloudy 10 - - - -
08/05:11pm 12.6 WSW 22 32 1002.3 - 0.6 - Partly cloudy 10 - - - -
08/05:01pm 12.6 WSW 23 32 1002.0 - 0.6 - Partly cloudy 5 - - - -
08/05:00pm 12.7 WSW 23 32 1002.0 - 0.6 - Partly cloudy 6 - - - -
08/04:40pm 15.4 W 22 32 1001.2 - 0.4 - Partly cloudy 10 - - - -
08/04:30pm 15.3 W 25 33 1000.9 - 0.4 - Partly cloudy 10 - - - -
08/04:00pm 15.0 W 28 38 1000.4 - 0.4 - Partly cloudy 10 - - - -
08/03:30pm 15.3 W 26 38 1000.1 - 0.4 - Partly cloudy 10 - - - -
08/03:00pm 16.6 W 30 44 999.6 - 0.0 Showers Cloudy 10 - - - -
08/02:30pm 17.3 W 29 40 999.5 - 0.0 - Partly cloudy 10 - - - -
08/02:00pm 17.9 W 28 40 999.3 - 0.0 - Partly cloudy 10 - - - -
08/01:32pm 17.2 W 28 41 999.0 - 0.0 - Partly cloudy 10 - - - -
08/01:30pm 17.3 W 27 34 998.9 - 0.0 - Partly cloudy 10 - - - -
08/01:04pm 17.1 W 27 37 998.5 - 0.0 - Partly cloudy 10 - - - -
08/01:00pm 17.9 W 27 36 998.4 - 0.0 - Partly cloudy 10 - - - -
08/12:30pm 16.3 W 29 40 998.5 - 0.0 - Partly cloudy 10 - - - -
08/12:00pm 16.9 WNW 27 37 997.9 - 0.0 - Cloudy 10 - - - -
08/11:30am 18.1 WNW 26 39 997.8 - 0.0 - Partly cloudy 10 - - - -
08/11:02am 16.8 NW 25 35 997.2 - 0.0 - Partly cloudy 10 - - - -
08/11:00am 16.9 NW 24 33 997.2 - 0.0 - Partly cloudy 10 - - - -
08/10:30am 16.3 NW 24 37 997.1 - 0.0 - Partly cloudy 10 - - - -
08/10:00am 17.0 WNW 22 35 996.5 - 0.0 - Partly cloudy 10 - - - -
08/09:30am 16.4 WNW 23 37 996.7 - 0.0 - Partly cloudy 10 - - - -
08/09:02am 15.4 WNW 24 37 996.4 - 0.0 - Partly cloudy 10 - - - -
08/09:00am 15.6 WNW 25 37 996.4 - 4.4 - Mostly clear 10 - - - -
08/08:30am 14.8 WNW 30 41 996.2 - 4.4 - Partly cloudy 10 - - - -
08/08:23am 14.7 WNW 27 41 995.9 - 4.4 - Partly cloudy 10 - - - -
08/08:04am 14.7 WNW 20 30 995.9 - 4.4 - Partly cloudy 10 - - - -
08/08:00am 14.7 WNW 21 30 995.8 - 4.4 - Partly cloudy 10 - - - -
08/07:40am 14.8 WNW 21 31 995.2 - 4.4 - Partly cloudy 10 - - - -
08/07:30am 14.7 WNW 20 29 995.2 - 4.4 - Partly cloudy 10 - - - -
08/07:00am 16.9 NW 25 37 994.7 - 4.4 - Partly cloudy 10 - - - -
08/06:57am 17.0 NW 26 37 994.4 - 4.4 - Partly cloudy 10 - - - -
08/06:55am 17.2 NW 25 37 994.2 - 4.4 - Partly cloudy 10 - - - -
08/06:51am 17.6 NNW 20 32 994.2 - 4.0 - Partly cloudy 10 - - - -
08/06:46am 17.4 NNW 19 26 993.9 - 4.0 - Partly cloudy 10 - - - -
08/06:30am 17.3 NNW 20 27 993.8 - 4.0 - Partly cloudy 5 - - - -
08/06:04am 17.6 N 23 33 993.2 - 3.4 - Partly cloudy 10 - - - -
08/06:00am 17.5 N 24 33 993.3 - 3.4 Showers Cloudy 10 - - - -
08/05:52am 17.5 N 27 39 993.1 - 3.4 - Partly cloudy 10 - - - -
08/05:37am 16.9 N 27 37 993.2 - 3.2 - Partly cloudy 4 - - - -
08/05:32am 17.0 N 27 36 993.3 - 3.0 - Partly cloudy 5 - - - -
08/05:30am 17.3 N 27 36 993.0 - 2.8 - Partly cloudy 10 - - - -
08/05:00am 17.8 N 27 39 993.3 - 1.8 - Partly cloudy 9 - - - -
08/04:37am 19.8 NNW 25 37 994.0 - 0.8 - Partly cloudy 10 - - - -
08/04:30am 20.8 NNW 23 33 994.2 - 0.8 - Partly cloudy 10 - - - -
08/04:11am 20.0 N 15 25 994.3 - 0.8 - Partly cloudy 10 - - - -
08/04:00am 19.3 N 14 18 994.3 - 0.8 - Partly cloudy 10 - - - -
08/03:38am 19.2 N 18 28 995.2 - 0.4 - Partly cloudy 10 - - - -
08/03:30am 19.8 N 21 28 995.0 - 0.2 - Partly cloudy 10 - - - -
08/03:00am 21.4 NNE 18 27 994.2 - 0.0 - Cloudy 10 - - - -
08/02:50am 20.8 N 16 26 994.8 - 0.0 - Partly cloudy 10 - - - -
08/02:30am 21.2 N 18 26 995.3 - 0.0 - Partly cloudy 10 - - - -
08/02:12am 21.6 N 19 29 996.2 - 0.0 - Partly cloudy 10 - - - -
08/02:00am 20.5 N 18 24 996.5 - 0.0 - Partly cloudy 10 - - - -
08/01:30am 20.0 N 16 22 997.6 - 0.0 - Partly cloudy 10 - - - -
08/01:00am 19.0 NNE 13 19 998.0 - 0.0 - Partly cloudy 10 - - - -
08/12:30am 19.6 NNE 8 11 999.2 - 0.0 - Partly cloudy 10 - - - -
08/12:00am 20.6 NE 9 14 999.5 - 0.0 - Mostly cloudy 10 - - - -
 
Date/Time
EDT
Temp
°C
Wind Pressure Rain since
9am
mm
Weather Cloud Vis
km
Sea
Height
m
Swell
Dir  Spd
kts
Gust
kts
hPa Trend Height
m
Period
s
Dir
07/11:30pm 20.7 NNE 10 13 1000.6 - 0.0 - Partly cloudy 10 - - - -
07/11:00pm 20.4 NNE 9 11 1001.7 - 0.0 - Partly cloudy 10 - - - -
07/10:30pm 21.0 N 7 8 1003.0 - 0.0 - Partly cloudy 10 - - - -
07/10:00pm 21.0 NE 7 8 1003.1 - 0.0 - Partly cloudy 10 - - - -
07/09:30pm 20.3 NE 5 6 1003.6 - 0.0 - Cloudy 10 - - - -
07/09:00pm 20.3 ENE 4 5 1003.9 - 0.0 - Partly cloudy 10 - - - -
07/08:30pm 20.8 CALM 0 1 1004.3 - 0.0 - Partly cloudy 10 - - - -
07/08:00pm 22.4 SE 1 3 1004.8 - 0.0 - Partly cloudy 10 - - - -
07/07:30pm 23.2 SE 4 6 1005.2 - 0.0 - - 10 - - - -
07/07:00pm 23.9 SSE 5 6 1005.7 - 0.0 - - 10 - - - -
07/06:30pm 24.3 S 6 7 1006.1 - 0.0 - - 10 - - - -
07/06:00pm 24.4 S 6 10 1006.7 - 0.0 - - 10 - - - -
07/05:30pm 25.9 WNW 9 15 1007.1 - 0.0 - - 10 - - - -
07/05:00pm 26.2 NNW 14 21 1007.9 - 0.0 - - 10 - - - -
07/04:30pm 26.3 NNW 12 18 1008.4 - 0.0 - - 10 - - - -
07/04:00pm 25.7 N 10 16 1009.1 - 0.0 - - 10 - - - -
07/03:30pm 25.5 NNW 10 18 1009.9 - 0.0 - - 10 - - - -
07/03:00pm 25.0 NNW 10 15 1010.4 - 0.0 - Mostly clear 10 - - - -
07/02:30pm 24.5 N 9 13 1010.9 - 0.0 - - 10 - - - -
07/02:00pm 24.1 N 10 16 1011.7 - 0.0 - - 10 - - - -
07/01:30pm 22.8 NE 9 14 1012.3 - 0.0 - - 10 - - - -
07/01:00pm 22.1 NNE 10 14 1013.0 - 0.0 - - 10 - - - -
07/12:30pm 21.8 N 8 12 1013.4 - 0.0 - - 10 - - - -
07/12:00pm 20.9 N 8 11 1013.9 - 0.0 - - 10 - - - -
07/11:30am 20.0 NNE 7 11 1014.2 - 0.0 - - 10 - - - -
07/11:00am 19.3 NE 7 11 1014.4 - 0.0 - - 10 - - - -
07/10:30am 18.4 NNE 6 10 1014.6 - 0.0 - - 10 - - - -
07/10:00am 17.1 NNE 7 10 1014.9 - 0.0 - - 10 - - - -
07/09:30am 15.9 N 7 9 1015.1 - 0.0 - - 10 - - - -
07/09:00am 15.3 N 6 8 1014.9 - 0.0 - - 10 - - - -
07/08:30am 13.8 N 6 8 1015.0 - 0.0 - - 10 - - - -
07/08:00am 12.0 N 7 8 1015.0 - 0.0 - - 10 - - - -
07/07:30am 9.4 N 6 7 1015.0 - 0.0 - - 10 - - - -
07/07:00am 7.4 N 6 8 1015.0 - 0.0 - - 10 - - - -
07/06:30am 4.8 N 6 7 1014.9 - 0.0 - - 10 - - - -
07/06:00am 4.8 N 5 6 1014.9 - 0.0 - - 10 - - - -
07/05:30am 5.1 NNE 6 7 1014.7 - 0.0 - - 10 - - - -
07/05:00am 6.2 N 6 7 1014.5 - 0.0 - - 10 - - - -
07/04:30am 6.4 N 7 8 1014.4 - 0.0 - - 10 - - - -

Other Formats:

Comma delimited format used in spreadsheet applications
http://www.bom.gov.au/fwo/IDV60701/IDV60701.94837.axf

JavaScript Object Notation format (JSON) in row-major order
http://www.bom.gov.au/fwo/IDV60701/IDV60701.94837.json